createdAt,value
2019-04-06T00:00:28.763Z,9.90
2019-04-06T00:02:56.547Z,11.20
2019-04-06T00:05:23.958Z,11.83
2019-04-06T00:07:51.868Z,12.60
2019-04-06T00:10:19.289Z,12.20
2019-04-06T00:12:46.681Z,13.40
2019-04-06T00:15:14.251Z,12.70
2019-04-06T00:17:41.651Z,11.30
2019-04-06T00:20:09.171Z,12.20
2019-04-06T00:22:36.748Z,12.40
2019-04-06T00:25:04.662Z,11.60
2019-04-06T00:27:32.047Z,14.77
2019-04-06T00:29:59.648Z,12.87
2019-04-06T00:32:34.076Z,14.40
2019-04-06T00:35:01.550Z,10.63
2019-04-06T00:37:28.942Z,12.10
2019-04-06T00:39:56.351Z,13.37
2019-04-06T00:42:23.798Z,10.90
2019-04-06T00:44:51.317Z,10.67
2019-04-06T00:47:18.731Z,13.00
2019-04-06T00:49:46.303Z,13.07
2019-04-06T00:52:13.708Z,11.33
2019-04-06T00:54:41.126Z,10.20
2019-04-06T00:57:08.584Z,11.53
2019-04-06T00:59:36.375Z,11.97
2019-04-06T01:02:04.466Z,11.17
2019-04-06T01:04:33.126Z,10.33
2019-04-06T01:07:00.526Z,10.70
2019-04-06T01:09:27.924Z,11.00
2019-04-06T01:11:55.508Z,13.00
2019-04-06T01:14:22.915Z,12.33
2019-04-06T01:16:50.303Z,11.60
2019-04-06T01:19:17.892Z,9.43
2019-04-06T01:21:45.321Z,11.00
2019-04-06T01:24:12.686Z,10.23
2019-04-06T01:26:40.139Z,13.97
2019-04-06T01:29:07.523Z,14.37
2019-04-06T01:31:34.907Z,12.70
2019-04-06T01:34:02.578Z,12.40
2019-04-06T01:36:30.003Z,13.20
2019-04-06T01:38:57.387Z,9.70
2019-04-06T01:41:24.831Z,7.83
2019-04-06T01:43:52.239Z,13.70
2019-04-06T01:46:19.636Z,11.43
2019-04-06T01:48:47.106Z,9.47
2019-04-06T01:51:14.551Z,9.30
2019-04-06T01:53:41.947Z,11.20
2019-04-06T01:56:18.062Z,10.03
2019-04-06T01:58:38.727Z,8.77
2019-04-06T02:01:26.343Z,11.53
2019-04-06T02:03:53.739Z,11.43
2019-04-06T02:06:21.250Z,11.87
2019-04-06T02:08:48.789Z,11.63
2019-04-06T02:11:16.192Z,11.60
2019-04-06T02:13:43.583Z,12.10
2019-04-06T02:16:11.424Z,11.50
2019-04-06T02:18:38.824Z,10.30
2019-04-06T02:21:06.235Z,9.80
2019-04-06T02:23:33.660Z,11.97
2019-04-06T02:26:01.051Z,9.63
2019-04-06T02:28:28.456Z,9.50
2019-04-06T02:31:08.342Z,8.00
2019-04-06T02:33:53.134Z,8.53
2019-04-06T02:36:42.987Z,9.70
2019-04-06T02:39:41.964Z,11.20
2019-04-06T02:42:16.711Z,9.53
2019-04-06T02:44:44.099Z,8.00
2019-04-06T02:47:11.486Z,11.60
2019-04-06T02:49:38.928Z,8.80
2019-04-06T02:52:06.309Z,11.90
2019-04-06T02:54:33.703Z,13.53
2019-04-06T02:57:01.283Z,13.03
2019-04-06T02:59:28.948Z,13.47
2019-04-06T03:01:57.387Z,10.10
2019-04-06T03:04:24.764Z,8.90
2019-04-06T03:06:52.359Z,11.50
2019-04-06T03:09:20.132Z,10.60
2019-04-06T03:11:47.533Z,12.20
2019-04-06T03:14:14.923Z,9.40
2019-04-06T03:16:42.417Z,8.60
2019-04-06T03:19:09.894Z,8.50
2019-04-06T03:21:37.309Z,9.00
2019-04-06T03:24:04.756Z,9.90
2019-04-06T03:26:32.150Z,9.63
2019-04-06T03:28:59.525Z,10.40
2019-04-06T03:31:28.025Z,11.60
2019-04-06T03:33:55.714Z,11.10
2019-04-06T03:36:23.100Z,11.10
2019-04-06T03:38:50.541Z,9.10
2019-04-06T03:41:17.924Z,10.33
2019-04-06T03:43:45.380Z,10.50
2019-04-06T03:46:12.815Z,11.20
2019-04-06T03:48:40.211Z,10.20
2019-04-06T03:51:07.616Z,9.20
2019-04-06T03:53:35.066Z,9.40
2019-04-06T03:56:02.640Z,8.30
2019-04-06T03:58:30.179Z,8.50
2019-04-06T04:00:57.877Z,9.10
2019-04-06T04:03:25.900Z,10.00
2019-04-06T04:05:53.406Z,11.30
2019-04-06T04:08:21.058Z,9.80
2019-04-06T04:10:48.556Z,9.10
2019-04-06T04:13:15.953Z,9.00
2019-04-06T04:15:43.763Z,8.50
2019-04-06T04:18:11.159Z,7.80
2019-04-06T04:20:38.542Z,13.30
2019-04-06T04:23:05.971Z,10.67
2019-04-06T04:25:33.267Z,10.50
2019-04-06T04:28:00.669Z,8.40
2019-04-06T04:30:33.275Z,9.17
2019-04-06T04:32:57.651Z,8.67
2019-04-06T04:35:25.036Z,8.00
2019-04-06T04:37:52.855Z,8.57
2019-04-06T04:40:20.275Z,7.60
2019-04-06T04:42:47.863Z,9.13
2019-04-06T04:45:15.636Z,13.50
2019-04-06T04:47:43.117Z,12.43
2019-04-06T04:50:10.531Z,11.03
2019-04-06T04:52:38.064Z,9.07
2019-04-06T04:55:06.099Z,10.70
2019-04-06T04:57:40.038Z,12.07
2019-04-06T05:00:03.199Z,9.03
2019-04-06T05:02:30.980Z,8.10
2019-04-06T05:04:58.590Z,9.30
2019-04-06T05:07:26.071Z,9.40
2019-04-06T05:09:53.467Z,10.33
2019-04-06T05:12:20.859Z,9.93
2019-04-06T05:15:00.060Z,9.10
2019-04-06T05:17:27.505Z,10.40
2019-04-06T05:19:54.853Z,11.20
2019-04-06T05:22:22.312Z,9.60
2019-04-06T05:24:50.083Z,8.90
2019-04-06T05:27:17.472Z,8.53
2019-04-06T05:29:45.340Z,8.27
2019-04-06T05:32:12.827Z,8.17
2019-04-06T05:34:40.243Z,10.73
2019-04-06T05:37:07.668Z,10.50
2019-04-06T05:39:35.063Z,10.70
2019-04-06T05:42:02.782Z,9.20
2019-04-06T05:44:30.178Z,7.90
2019-04-06T05:46:57.581Z,7.90
2019-04-06T05:49:24.971Z,6.93
2019-04-06T05:51:52.394Z,8.47
2019-04-06T05:54:19.922Z,9.53
2019-04-06T05:56:47.305Z,9.13
2019-04-06T05:59:14.892Z,9.07
2019-04-06T06:01:42.622Z,9.70
2019-04-06T06:04:11.478Z,7.80
2019-04-06T06:06:39.223Z,7.17
2019-04-06T06:09:07.110Z,7.23
2019-04-06T06:11:34.954Z,6.90
2019-04-06T06:14:02.913Z,9.23
2019-04-06T06:16:30.414Z,8.73
2019-04-06T06:18:59.302Z,8.70
2019-04-06T06:21:26.683Z,7.60
2019-04-06T06:23:54.323Z,6.93
2019-04-06T06:26:21.820Z,6.53
2019-04-06T06:28:49.378Z,10.10
2019-04-06T06:31:16.779Z,8.60
2019-04-06T06:33:44.414Z,9.20
2019-04-06T06:36:12.143Z,9.17
2019-04-06T06:38:39.609Z,8.83
2019-04-06T06:41:07.021Z,9.70
2019-04-06T06:43:34.648Z,9.83
2019-04-06T06:46:02.062Z,9.53
2019-04-06T06:48:29.670Z,7.40
2019-04-06T06:50:57.221Z,7.07
2019-04-06T06:53:26.454Z,9.97
2019-04-06T06:55:54.067Z,8.50
2019-04-06T06:58:25.567Z,7.93
2019-04-06T07:00:50.997Z,8.60
2019-04-06T07:03:18.750Z,9.40
2019-04-06T07:05:47.225Z,9.27
2019-04-06T07:08:14.611Z,8.60
2019-04-06T07:10:42.172Z,9.23
2019-04-06T07:13:09.643Z,9.17
2019-04-06T07:15:37.041Z,9.10
2019-04-06T07:18:04.451Z,9.07
2019-04-06T07:20:31.887Z,8.03
2019-04-06T07:22:59.302Z,9.17
2019-04-06T07:25:26.701Z,8.40
2019-04-06T07:27:54.166Z,9.73
2019-04-06T07:30:21.566Z,9.20
2019-04-06T07:32:49.179Z,10.30
2019-04-06T07:35:16.716Z,8.93
2019-04-06T07:37:44.346Z,8.60
2019-04-06T07:40:12.253Z,8.60
2019-04-06T07:42:40.071Z,8.53
2019-04-06T07:45:07.909Z,8.97
2019-04-06T07:47:35.325Z,8.27
2019-04-06T07:50:03.003Z,8.40
2019-04-06T07:52:30.417Z,7.90
2019-04-06T07:54:57.895Z,8.00
2019-04-06T07:57:25.427Z,7.60
2019-04-06T07:59:52.911Z,8.57
2019-04-06T08:02:20.606Z,7.57
2019-04-06T08:04:48.547Z,8.67
2019-04-06T08:07:15.957Z,9.20
2019-04-06T08:09:43.371Z,7.17
2019-04-06T08:12:10.835Z,6.90
2019-04-06T08:14:38.251Z,6.90
2019-04-06T08:17:05.637Z,7.87
2019-04-06T08:19:33.072Z,7.50
2019-04-06T08:22:02.219Z,8.73
2019-04-06T08:24:29.878Z,7.47
2019-04-06T08:26:57.291Z,8.90
2019-04-06T08:29:24.707Z,8.20
2019-04-06T08:31:52.152Z,8.03
2019-04-06T08:34:19.538Z,9.07
2019-04-06T08:36:46.930Z,6.93
2019-04-06T08:39:14.376Z,6.73
2019-04-06T08:41:42.058Z,7.13
2019-04-06T08:44:09.527Z,8.07
2019-04-06T08:46:37.036Z,7.57
2019-04-06T08:49:04.579Z,8.27
2019-04-06T08:51:31.988Z,7.43
2019-04-06T08:53:59.582Z,8.20
2019-04-06T08:56:26.963Z,8.17
2019-04-06T08:58:54.372Z,7.57
2019-04-06T09:01:21.851Z,6.60
2019-04-06T09:03:49.519Z,6.43
2019-04-06T09:06:17.499Z,7.17
2019-04-06T09:08:45.043Z,6.83
2019-04-06T09:11:12.452Z,7.20
2019-04-06T09:13:40.449Z,7.60
2019-04-06T09:16:08.355Z,7.30
2019-04-06T09:18:35.836Z,6.10
2019-04-06T09:21:03.259Z,6.87
2019-04-06T09:23:30.728Z,7.37
2019-04-06T09:25:58.247Z,6.90
2019-04-06T09:28:25.620Z,6.43
2019-04-06T09:30:53.063Z,6.40
2019-04-06T09:33:20.773Z,5.37
2019-04-06T09:35:48.299Z,5.20
2019-04-06T09:38:18.727Z,5.30
2019-04-06T09:40:47.600Z,5.20
2019-04-06T09:43:15.189Z,5.17
2019-04-06T09:45:50.490Z,4.90
2019-04-06T09:48:31.535Z,4.50
2019-04-06T09:51:17.611Z,5.90
2019-04-06T09:54:06.230Z,4.60
2019-04-06T09:56:52.104Z,4.80
2019-04-06T09:59:36.769Z,4.80
2019-04-06T10:02:22.829Z,5.37
2019-04-06T10:04:58.629Z,5.30
2019-04-06T10:07:48.352Z,4.93
2019-04-06T10:10:38.136Z,5.23
2019-04-06T10:13:22.073Z,6.40
2019-04-06T10:16:27.119Z,5.40
2019-04-06T10:19:13.465Z,6.10
2019-04-06T10:21:56.883Z,5.03
2019-04-06T10:24:46.590Z,5.50
2019-04-06T10:27:26.162Z,5.40
2019-04-06T10:30:19.752Z,5.50
2019-04-06T10:33:12.815Z,5.70
2019-04-06T10:36:00.726Z,5.67
2019-04-06T10:38:47.627Z,4.40
2019-04-06T10:41:43.279Z,4.87
2019-04-06T10:44:19.370Z,4.90
2019-04-06T10:47:15.756Z,4.87
2019-04-06T10:49:50.349Z,4.33
2019-04-06T10:52:43.501Z,4.60
2019-04-06T10:55:33.004Z,5.43
2019-04-06T10:58:38.366Z,8.07
2019-04-06T11:01:16.692Z,7.00
2019-04-06T11:04:06.627Z,7.60
2019-04-06T11:06:59.651Z,7.67
2019-04-06T11:09:45.302Z,7.57
2019-04-06T11:12:34.835Z,8.03
2019-04-06T11:15:37.264Z,8.80
2019-04-06T11:18:24.102Z,7.90
2019-04-06T11:21:17.059Z,7.40
2019-04-06T11:24:12.710Z,5.90
2019-04-06T11:26:53.382Z,5.50
2019-04-06T11:29:44.337Z,5.53
2019-04-06T11:32:22.518Z,5.47
2019-04-06T11:35:12.605Z,6.00
2019-04-06T11:38:18.334Z,6.93
2019-04-06T11:41:07.761Z,7.13
2019-04-06T11:43:57.368Z,6.40
2019-04-06T11:46:50.246Z,8.03
2019-04-06T11:49:35.897Z,8.97
2019-04-06T11:52:31.638Z,8.60
2019-04-06T11:55:06.523Z,7.40
2019-04-06T11:58:02.257Z,6.03
2019-04-06T12:00:42.073Z,8.57
2019-04-06T12:03:38.487Z,7.53
2019-04-06T12:06:28.949Z,7.90
2019-04-06T12:09:23.575Z,7.00
2019-04-06T12:12:22.915Z,8.87
2019-04-06T12:15:15.507Z,8.47
2019-04-06T12:18:05.663Z,6.60
2019-04-06T12:20:49.925Z,8.90
2019-04-06T12:23:35.211Z,9.53
2019-04-06T12:26:11.684Z,10.10
2019-04-06T12:29:00.900Z,9.63
2019-04-06T12:31:46.577Z,8.60
2019-04-06T12:34:40.756Z,9.43
2019-04-06T12:37:34.117Z,8.20
2019-04-06T12:40:21.224Z,7.23
2019-04-06T12:43:08.252Z,10.30
2019-04-06T12:45:58.246Z,10.70
2019-04-06T12:48:47.958Z,9.73
2019-04-06T12:51:37.309Z,10.30
2019-04-06T12:54:30.136Z,9.60
2019-04-06T12:57:21.756Z,9.47
2019-04-06T13:00:06.755Z,10.17
2019-04-06T13:02:52.654Z,9.60
2019-04-06T13:05:30.334Z,9.87
2019-04-06T13:08:24.395Z,8.37
2019-04-06T13:11:00.366Z,9.77
2019-04-06T13:13:45.674Z,9.70
2019-04-06T13:16:26.387Z,9.27
2019-04-06T13:19:05.545Z,9.57
2019-04-06T13:21:51.652Z,8.60
2019-04-06T13:24:35.559Z,8.10
2019-04-06T13:27:25.429Z,7.97
2019-04-06T13:30:11.246Z,8.60
2019-04-06T13:33:00.654Z,8.27
2019-04-06T13:35:46.384Z,8.73
2019-04-06T13:38:26.307Z,8.10
2019-04-06T13:41:04.313Z,6.77
2019-04-06T13:43:54.022Z,9.17
2019-04-06T13:46:44.292Z,9.20
2019-04-06T13:49:29.982Z,10.17
2019-04-06T13:52:16.966Z,9.23
2019-04-06T13:54:57.621Z,9.50
2019-04-06T13:57:42.550Z,9.90
2019-04-06T14:00:32.242Z,9.00
2019-04-06T14:03:06.943Z,9.50
2019-04-06T14:06:00.118Z,7.90
2019-04-06T14:08:38.603Z,9.00
2019-04-06T14:11:28.666Z,8.73
2019-04-06T14:14:13.234Z,9.80
2019-04-06T14:17:15.264Z,10.67
2019-04-06T14:19:53.046Z,9.57
2019-04-06T14:22:48.202Z,9.13
2019-04-06T14:25:40.830Z,9.57
2019-04-06T14:28:16.325Z,8.57
2019-04-06T14:31:06.640Z,8.40
2019-04-06T14:34:05.947Z,9.03
2019-04-06T14:36:59.729Z,8.10
2019-04-06T14:39:46.701Z,8.10
2019-04-06T14:42:28.849Z,7.33
2019-04-06T14:45:24.536Z,8.53
2019-04-06T14:48:13.396Z,7.50
2019-04-06T14:51:12.702Z,7.73
2019-04-06T14:53:58.758Z,7.90
2019-04-06T14:56:35.927Z,7.70
2019-04-06T14:59:23.489Z,7.47
2019-04-06T15:02:16.411Z,8.20
2019-04-06T15:04:56.745Z,7.53
2019-04-06T15:07:33.731Z,6.47
2019-04-06T15:10:10.950Z,6.70
2019-04-06T15:13:06.831Z,7.80
2019-04-06T15:15:43.974Z,7.00
2019-04-06T15:18:30.983Z,7.00
2019-04-06T15:21:21.081Z,6.87
2019-04-06T15:24:02.667Z,7.50
2019-04-06T15:26:44.142Z,7.80
2019-04-06T15:29:22.459Z,7.03
2019-04-06T15:32:12.523Z,7.30
2019-04-06T15:34:58.148Z,6.80
2019-04-06T15:37:44.097Z,6.37
2019-04-06T15:40:23.039Z,6.13
2019-04-06T15:43:06.478Z,6.50
2019-04-06T15:45:57.102Z,5.80
2019-04-06T15:48:51.166Z,6.30
2019-04-06T15:51:25.574Z,5.70
2019-04-06T15:54:06.920Z,6.00
2019-04-06T15:56:57.946Z,6.03
2019-04-06T15:59:47.825Z,5.27
2019-04-06T16:02:37.686Z,5.17
2019-04-06T16:05:13.150Z,6.40
2019-04-06T16:07:48.134Z,6.50
2019-04-06T16:10:36.134Z,5.77
2019-04-06T16:13:29.162Z,5.37
2019-04-06T16:16:05.255Z,6.37
2019-04-06T16:18:50.803Z,7.00
2019-04-06T16:21:36.496Z,6.20
2019-04-06T16:24:14.227Z,6.00
2019-04-06T16:27:09.552Z,6.73
2019-04-06T16:29:58.463Z,6.33
2019-04-06T16:32:38.828Z,5.70
2019-04-06T16:35:24.655Z,6.60
2019-04-06T16:38:03.995Z,6.20
2019-04-06T16:40:51.040Z,6.10
2019-04-06T16:43:32.109Z,6.57
2019-04-06T16:46:22.099Z,5.90
2019-04-06T16:48:56.977Z,5.77
2019-04-06T16:51:43.918Z,5.93
2019-04-06T16:54:22.451Z,5.83
2019-04-06T16:57:05.350Z,5.70
2019-04-06T16:59:43.662Z,5.77
2019-04-06T17:02:29.959Z,5.40
2019-04-06T17:05:09.153Z,5.60
2019-04-06T17:07:46.451Z,6.87
2019-04-06T17:10:36.144Z,6.13
2019-04-06T17:13:26.032Z,8.10
2019-04-06T17:16:22.724Z,12.67
2019-04-06T17:19:13.267Z,10.77
2019-04-06T17:21:52.207Z,8.30
2019-04-06T17:24:31.455Z,6.70
2019-04-06T17:27:21.186Z,4.87
2019-04-06T17:30:23.246Z,4.43
2019-04-06T17:33:13.822Z,5.40
2019-04-06T17:36:06.827Z,7.00
2019-04-06T17:38:53.830Z,6.37
2019-04-06T17:41:30.667Z,7.50
2019-04-06T17:44:32.983Z,7.43
2019-04-06T17:47:23.100Z,5.80
2019-04-06T17:50:13.911Z,5.53
2019-04-06T17:52:53.335Z,6.33
2019-04-06T17:55:42.479Z,5.40
2019-04-06T17:58:27.886Z,4.87
2019-04-06T18:01:18.379Z,7.63
2019-04-06T18:04:11.578Z,6.20
2019-04-06T18:06:49.807Z,6.13
2019-04-06T18:09:35.656Z,5.77
2019-04-06T18:12:32.399Z,5.77
2019-04-06T18:14:59.791Z,7.43
2019-04-06T18:17:28.084Z,7.83
2019-04-06T18:19:55.996Z,8.60
2019-04-06T18:22:23.392Z,9.80
2019-04-06T18:24:51.484Z,11.20
2019-04-06T18:27:19.396Z,9.47
2019-04-06T18:29:46.860Z,7.70
2019-04-06T18:32:26.844Z,9.60
2019-04-06T18:34:54.691Z,8.30
2019-04-06T18:37:41.692Z,9.10
2019-04-06T18:40:18.362Z,13.00
2019-04-06T18:42:46.346Z,20.00
2019-04-06T18:45:14.357Z,18.70
2019-04-06T18:47:42.455Z,12.83
2019-04-06T18:50:10.366Z,10.70
2019-04-06T18:52:37.783Z,8.10
2019-04-06T18:55:06.422Z,7.30
2019-04-06T18:57:34.553Z,6.70
2019-04-06T19:00:02.212Z,9.93
2019-04-06T19:02:31.647Z,9.70
2019-04-06T19:04:59.693Z,8.90
2019-04-06T19:07:27.419Z,8.40
2019-04-06T19:09:55.710Z,8.23
2019-04-06T19:12:23.764Z,10.13
2019-04-06T19:14:51.161Z,7.60
2019-04-06T19:17:18.769Z,11.20
2019-04-06T19:19:46.456Z,11.63
2019-04-06T19:22:13.863Z,9.90
2019-04-06T19:24:41.798Z,21.43
2019-04-06T19:27:09.326Z,17.20
2019-04-06T19:29:37.242Z,13.77
2019-04-06T19:32:04.644Z,12.60
2019-04-06T19:34:32.569Z,15.63
2019-04-06T19:37:00.219Z,18.10
2019-04-06T19:39:27.732Z,20.03
2019-04-06T19:41:55.188Z,22.50
2019-04-06T19:44:22.667Z,20.33
2019-04-06T19:46:50.429Z,25.60
2019-04-06T19:49:18.357Z,27.30
2019-04-06T19:51:45.793Z,18.67
2019-04-06T19:54:13.210Z,19.03
2019-04-06T19:56:40.794Z,16.53
2019-04-06T19:59:08.875Z,17.37
2019-04-06T20:01:36.364Z,14.43
2019-04-06T20:04:03.838Z,14.63
2019-04-06T20:06:31.764Z,13.67
2019-04-06T20:08:59.524Z,20.47
2019-04-06T20:11:27.676Z,17.60
2019-04-06T20:13:55.079Z,14.73
2019-04-06T20:16:22.863Z,12.77
2019-04-06T20:18:50.579Z,16.47
2019-04-06T20:21:18.989Z,15.20
2019-04-06T20:23:46.495Z,12.33
2019-04-06T20:26:13.950Z,10.40
2019-04-06T20:28:41.358Z,13.70
2019-04-06T20:31:09.201Z,12.57
2019-04-06T20:33:46.738Z,15.23
2019-04-06T20:36:05.957Z,15.60
2019-04-06T20:38:35.684Z,11.80
2019-04-06T20:41:03.254Z,14.30
2019-04-06T20:43:30.676Z,15.20
2019-04-06T20:45:58.652Z,10.57
2019-04-06T20:48:26.209Z,12.93
2019-04-06T20:50:54.069Z,12.23
2019-04-06T20:53:22.020Z,13.30
2019-04-06T20:55:50.277Z,11.90
2019-04-06T20:58:18.274Z,11.80
2019-04-06T21:00:46.101Z,9.97
2019-04-06T21:03:13.967Z,7.50
2019-04-06T21:05:41.407Z,7.20
2019-04-06T21:08:09.042Z,8.67
2019-04-06T21:10:37.438Z,7.10
2019-04-06T21:13:04.791Z,5.93
2019-04-06T21:15:32.298Z,5.00
2019-04-06T21:17:59.998Z,4.47
2019-04-06T21:20:27.645Z,4.23
2019-04-06T21:22:55.200Z,4.30
2019-04-06T21:25:23.345Z,4.10
2019-04-06T21:27:51.399Z,4.33
2019-04-06T21:30:18.966Z,3.77
2019-04-06T21:32:46.520Z,4.10
2019-04-06T21:35:13.932Z,4.60
2019-04-06T21:37:41.326Z,4.20
2019-04-06T21:40:09.227Z,4.40
2019-04-06T21:42:36.632Z,4.07
2019-04-06T21:45:06.334Z,4.03
2019-04-06T21:47:34.046Z,3.70
2019-04-06T21:50:01.477Z,4.40
2019-04-06T21:52:28.882Z,4.17
2019-04-06T21:54:56.882Z,3.60
2019-04-06T21:57:24.602Z,3.73
2019-04-06T21:59:52.483Z,4.23
2019-04-06T22:02:20.353Z,4.10
2019-04-06T22:04:47.757Z,4.13
2019-04-06T22:07:15.306Z,4.50
2019-04-06T22:09:43.903Z,4.17
2019-04-06T22:12:11.560Z,4.73
2019-04-06T22:14:39.607Z,3.90
2019-04-06T22:17:08.302Z,3.00
2019-04-06T22:19:35.939Z,3.20
2019-04-06T22:22:03.733Z,2.90
2019-04-06T22:24:31.670Z,3.03
2019-04-06T22:27:00.075Z,3.40
2019-04-06T22:29:27.593Z,2.80
2019-04-06T22:31:55.976Z,2.60
2019-04-06T22:34:35.303Z,2.80
2019-04-06T22:36:52.676Z,2.40
2019-04-06T22:39:20.370Z,2.00
2019-04-06T22:41:47.919Z,2.20
2019-04-06T22:44:15.268Z,2.40
2019-04-06T22:46:43.022Z,2.20
2019-04-06T22:49:10.556Z,2.43
2019-04-06T22:51:38.962Z,2.00
2019-04-06T22:54:06.818Z,2.23
2019-04-06T22:56:34.302Z,2.20
2019-04-06T22:59:01.723Z,2.10
2019-04-06T23:01:31.198Z,2.23
2019-04-06T23:04:24.175Z,2.20
2019-04-06T23:06:56.269Z,2.20
2019-04-06T23:09:24.146Z,2.10
2019-04-06T23:11:51.564Z,2.50
2019-04-06T23:14:19.188Z,2.00
2019-04-06T23:16:47.578Z,2.27
2019-04-06T23:19:15.206Z,2.30
2019-04-06T23:21:42.924Z,2.30
2019-04-06T23:24:11.030Z,2.30
2019-04-06T23:26:38.733Z,2.10
2019-04-06T23:29:06.351Z,2.20
2019-04-06T23:31:33.766Z,2.63
2019-04-06T23:34:01.199Z,2.40
2019-04-06T23:36:29.197Z,2.27
2019-04-06T23:38:56.546Z,2.40
2019-04-06T23:41:23.951Z,2.40
2019-04-06T23:43:51.865Z,2.40
2019-04-06T23:46:19.270Z,2.27
2019-04-06T23:48:46.671Z,2.23
2019-04-06T23:51:15.390Z,2.20
2019-04-06T23:53:42.859Z,2.30
2019-04-06T23:56:10.291Z,2.33
2019-04-06T23:58:37.777Z,2.33
